19 Feb 2019 08:36 UTC 2019050+08:36 UTC

Overview Datums Bench Marks Data Query Site Visit Daily QC Messages Attributes

171: National Park Service - Bird Island

27° 29' 4" N   97° 19' 5" W
NPSBI
United States National Park Service United States National Park Service

Station Information

National Park Service - Bird Island
National Park Service - Bird Island
more pictures
 
Station Name:National Park Service - Bird Island
DNR ID:171
Location:27° 29' 4" N, 97° 19' 5" W

Water Level Forecasts

Latest Observations

Series Metric English Marine Observed at
Water Temperature 14.9 °C 58.8 °F 58.8 °F Feb 19 02:12 CST
00h13m ago
Salinity 26.800 psu 26.800 psu 26.800 psu Feb 19 02:12 CST
00h13m ago
pH 8.17 pH 8.17 pH 8.17 pH Feb 19 02:12 CST
00h13m ago
Turbidity 22 ntu 22 ntu 22 ntu Feb 19 02:12 CST
00h13m ago
Dissolved Oxygen 0.00 mg/L 0.000000 lb/ft3 0.000000 lb/ft3 Feb 19 02:12 CST
00h13m ago

Maps

National Park Service - Bird Island
All Stations in Area
Entire Network
 

Recent Observations

Date/Time Water
Temp (°F)
Sal (psu) pH (pH) Turb (ntu) DO (lb/ft3)
Feb 19 02:00 CST 58.8 26.800 8.17 1506 0.000000
Feb 19 01:00 CST 58.5 27.200 8.15 16 0.000000
Feb 19 00:00 CST 59.2 27.000 8.16 1424 0.000000
Feb 18 23:00 CST 59.4 27.000 8.17 14 0.000000
Feb 18 22:00 CST 59.4 27.100 8.16 30 0.000000
Feb 18 21:00 CST 59.5 27.200 8.17 1676 0.000000
Feb 18 20:00 CST 59.7 27.200 8.17 18 0.000000
Feb 18 19:00 CST 60.1 27.200 8.17 15 0.000000
Feb 18 18:00 CST 60.4 27.200 8.17 26 0.000000
Feb 18 17:00 CST 61.2 27.200 8.17 17 0.000000
Feb 18 16:00 CST 61.2 27.300 8.14 13 0.000000
Feb 18 15:00 CST 61.2 27.400 8.12 9 0.000000
Feb 18 14:00 CST 60.4 27.500 8.09 14 0.000000
Feb 18 13:00 CST 60.8 27.500 8.08 28 0.000000
Feb 18 12:00 CST 60.4 27.600 8.06 1745 0.000000
Feb 18 11:00 CST 61.3 27.500 8.06 44 0.000000
Feb 18 10:00 CST 61.2 27.600 8.05 26 0.000000
Feb 18 09:00 CST 60.1 27.800 8.02 49 0.000000
Feb 18 08:00 CST 61.7 27.700 8.04 1685 0.000000
Feb 18 07:00 CST 61.9 27.800 8.03 25 0.000000
Feb 18 06:00 CST 62.6 27.800 8.03 23 0.000000
Feb 18 05:00 CST 62.6 27.900 8.03 32 0.000000
Feb 18 04:00 CST 62.8 27.900 8.04 29 0.000000
Feb 18 03:00 CST 64.0 27.900 8.07 1766 0.000000
Feb 18 02:00 CST 64.6 27.900 8.07 22 0.000000

Historical Data Availability